This is the latest recevied weather packets stored in our database for station/object WD9U. If no packets are shown the sender has not sent any weather packets the latest 1 day(s).
| Time | Temp. | Humidity | Pressure | Rain* | Wind** | Luminosity | Snow |
|---|---|---|---|---|---|---|---|
| 1778069231 | 2.22° C | 59% | 1014.6 hPa | 0 mm | - | 72 W/m² | - |
| 1778069113 | 2.22° C | 59% | 1014.6 hPa | 0 mm | - | 73 W/m² | - |
| 1778067911 | 1.67° C | 59% | 1014.2 hPa | 0 mm | - | 48 W/m² | - |
| 1778065511 | 2.22° C | 60% | 1014 hPa | 0 mm | - | 8 W/m² | - |
| 1778064320 | 2.22° C | 58% | 1013.8 hPa | 0 mm | - | 2 W/m² | - |
| 1778061921 | 2.22° C | 57% | 1013.9 hPa | 0 mm | - | 0 W/m² | - |
| 1778060720 | 2.22° C | 56% | 1013.7 hPa | 0 mm | - | 0 W/m² | - |
| 1778058318 | 2.78° C | 53% | 1013.6 hPa | 0 mm | - | 0 W/m² | - |
| 1778058075 | 2.78° C | 53% | 1013.5 hPa | 0 mm | - | 0 W/m² | - |
| 1778057715 | 2.78° C | 52% | 1013.6 hPa | 0 mm | - | 0 W/m² | - |
| 1778057355 | 2.78° C | 52% | 1013.5 hPa | 0 mm | - | 0 W/m² | - |
| 1778057118 | 2.78° C | 53% | 1013.5 hPa | 0 mm | - | 0 W/m² | - |
| 1778056275 | 2.78° C | 53% | 1013.4 hPa | 0 mm | - | 0 W/m² | - |
| 1778055915 | 2.78° C | 52% | 1013.5 hPa | 0 mm | - | 0 W/m² | - |
| 1778055555 | 2.78° C | 52% | 1013.5 hPa | 0 mm | - | 0 W/m² | - |
| 1778055195 | 2.78° C | 51% | 1013.5 hPa | 0 mm | - | 0 W/m² | - |
| 1778054835 | 2.78° C | 52% | 1013.5 hPa | 0 mm | - | 0 W/m² | - |
| 1778054475 | 2.78° C | 51% | 1013.4 hPa | 0 mm | - | 0 W/m² | - |
| 1778054115 | 2.78° C | 53% | 1013.5 hPa | 0 mm | - | 0 W/m² | - |
| 1778053755 | 2.78° C | 52% | 1013.5 hPa | 0 mm | - | 0 W/m² | - |
| 1778053395 | 2.78° C | 52% | 1013.5 hPa | 0 mm | - | 0 W/m² | - |
| 1778053034 | 2.78° C | 52% | 1013.6 hPa | 0 mm | - | 0 W/m² | - |
| 1778052673 | 2.78° C | 51% | 1013.5 hPa | 0 mm | - | 0 W/m² | - |
| 1778052313 | 2.78° C | 52% | 1013.6 hPa | 0 mm | - | 0 W/m² | - |
| 1778051953 | 2.78° C | 51% | 1013.6 hPa | 0 mm | - | 0 W/m² | - |
* Rain latest hour (hover to see other rain measurements)
** Current wind speed in m/s (hover to see current wind gust speed)